createdAt,value
2018-02-05T00:00:32.993Z,0.60
2018-02-05T00:03:00.466Z,0.60
2018-02-05T00:05:28.689Z,0.60
2018-02-05T00:07:56.170Z,0.60
2018-02-05T00:10:23.646Z,0.60
2018-02-05T00:12:51.878Z,0.70
2018-02-05T00:15:19.413Z,0.60
2018-02-05T00:17:46.881Z,0.70
2018-02-05T00:20:14.366Z,0.70
2018-02-05T00:22:41.821Z,0.70
2018-02-05T00:25:09.281Z,0.70
2018-02-05T00:27:36.753Z,0.70
2018-02-05T00:30:04.206Z,0.70
2018-02-05T00:32:31.682Z,0.60
2018-02-05T00:34:59.974Z,0.70
2018-02-05T00:37:27.458Z,0.60
2018-02-05T00:39:54.909Z,0.60
2018-02-05T00:42:22.407Z,0.60
2018-02-05T00:44:49.890Z,0.60
2018-02-05T00:47:17.354Z,0.60
2018-02-05T00:49:44.801Z,0.60
2018-02-05T00:52:12.275Z,0.60
2018-02-05T00:54:39.728Z,0.60
2018-02-05T00:57:07.983Z,0.60
2018-02-05T00:59:35.434Z,0.50
2018-02-05T01:02:02.922Z,0.50
2018-02-05T01:04:30.382Z,0.50
2018-02-05T01:06:57.854Z,0.50
2018-02-05T01:09:25.341Z,0.50
2018-02-05T01:11:54.302Z,0.50
2018-02-05T01:14:21.799Z,0.50
2018-02-05T01:16:49.243Z,0.50
2018-02-05T01:19:16.730Z,0.50
2018-02-05T01:21:44.193Z,0.50
2018-02-05T01:24:11.650Z,0.50
2018-02-05T01:26:39.133Z,0.50
2018-02-05T01:29:06.579Z,0.50
2018-02-05T01:31:34.058Z,0.50
2018-02-05T01:34:01.521Z,0.60
2018-02-05T01:36:28.973Z,0.50
2018-02-05T01:38:56.447Z,0.60
2018-02-05T01:41:24.673Z,0.60
2018-02-05T01:43:52.142Z,0.50
2018-02-05T01:46:19.602Z,0.50
2018-02-05T01:48:47.092Z,0.60
2018-02-05T01:51:14.590Z,0.60
2018-02-05T01:53:42.805Z,0.60
2018-02-05T01:56:10.286Z,0.50
2018-02-05T01:58:37.775Z,0.50
2018-02-05T02:01:05.250Z,0.60
2018-02-05T02:03:33.471Z,0.50
2018-02-05T02:06:00.966Z,0.50
2018-02-05T02:08:28.469Z,0.50
2018-02-05T02:10:55.925Z,0.50
2018-02-05T02:13:23.396Z,0.50
2018-02-05T02:15:50.886Z,0.50
2018-02-05T02:18:18.350Z,0.50
2018-02-05T02:20:45.805Z,0.50
2018-02-05T02:23:13.290Z,0.50
2018-02-05T02:25:40.798Z,0.50
2018-02-05T02:28:08.245Z,0.50
2018-02-05T02:30:35.705Z,0.50
2018-02-05T02:33:03.190Z,0.50
2018-02-05T02:35:30.650Z,0.50
2018-02-05T02:37:58.134Z,0.50
2018-02-05T02:40:25.586Z,0.50
2018-02-05T02:42:53.805Z,0.50
2018-02-05T02:45:22.071Z,0.50
2018-02-05T02:47:49.527Z,0.50
2018-02-05T02:50:17.017Z,0.50
2018-02-05T02:52:44.466Z,0.50
2018-02-05T02:55:11.929Z,0.50
2018-02-05T02:57:39.406Z,0.50
2018-02-05T03:00:07.661Z,0.50
2018-02-05T03:02:35.114Z,0.50
2018-02-05T03:05:02.595Z,0.50
2018-02-05T03:07:30.818Z,0.50
2018-02-05T03:09:58.293Z,0.50
2018-02-05T03:12:25.742Z,0.50
2018-02-05T03:14:53.243Z,0.50
2018-02-05T03:17:21.490Z,0.50
2018-02-05T03:19:48.939Z,0.50
2018-02-05T03:22:16.437Z,0.50
2018-02-05T03:24:44.642Z,0.50
2018-02-05T03:27:12.187Z,0.50
2018-02-05T03:29:39.643Z,0.50
2018-02-05T03:32:07.110Z,0.50
2018-02-05T03:34:34.559Z,0.50
2018-02-05T03:37:02.027Z,0.50
2018-02-05T03:39:29.516Z,0.50
2018-02-05T03:41:56.979Z,0.50
2018-02-05T03:44:24.414Z,0.50
2018-02-05T03:46:51.875Z,0.50
2018-02-05T03:49:19.310Z,0.40
2018-02-05T03:51:46.766Z,0.50
2018-02-05T03:54:14.226Z,0.50
2018-02-05T03:56:41.675Z,0.50
2018-02-05T03:59:09.131Z,0.40
2018-02-05T04:01:36.587Z,0.40
2018-02-05T04:04:04.046Z,0.50
2018-02-05T04:06:31.504Z,0.50
2018-02-05T04:08:58.946Z,0.40
2018-02-05T04:11:26.389Z,0.40
2018-02-05T04:13:54.627Z,0.40
2018-02-05T04:16:22.075Z,0.40
2018-02-05T04:18:49.523Z,0.40
2018-02-05T04:21:16.991Z,0.40
2018-02-05T04:23:44.438Z,0.40
2018-02-05T04:26:11.878Z,0.40
2018-02-05T04:28:39.350Z,0.40
2018-02-05T04:31:06.786Z,0.40
2018-02-05T04:33:34.227Z,0.30
2018-02-05T04:36:01.683Z,0.40
2018-02-05T04:38:29.123Z,0.30
2018-02-05T04:40:56.601Z,0.40
2018-02-05T04:43:24.074Z,0.40
2018-02-05T04:45:51.514Z,0.30
2018-02-05T04:48:18.947Z,0.30
2018-02-05T04:50:47.194Z,0.30
2018-02-05T04:53:14.651Z,0.30
2018-02-05T04:55:42.210Z,0.30
2018-02-05T04:58:09.642Z,0.30
2018-02-05T05:00:37.100Z,0.20
2018-02-05T05:03:04.558Z,0.20
2018-02-05T05:05:32.040Z,0.20
2018-02-05T05:07:59.483Z,0.10
2018-02-05T05:10:26.947Z,0.10
2018-02-05T05:12:54.466Z,0.00
2018-02-05T05:15:22.039Z,0.00
2018-02-05T05:17:49.501Z,-0.10
2018-02-05T05:20:16.950Z,-0.20
2018-02-05T05:22:44.422Z,-0.20
2018-02-05T05:25:11.865Z,-0.20
2018-02-05T05:27:39.350Z,-0.30
2018-02-05T05:30:06.806Z,-0.30
2018-02-05T05:32:34.330Z,-0.30
2018-02-05T05:35:01.807Z,-0.40
2018-02-05T05:37:29.254Z,-0.50
2018-02-05T05:39:56.727Z,-0.50
2018-02-05T05:42:26.742Z,-0.50
2018-02-05T05:44:54.971Z,-0.60
2018-02-05T05:47:22.410Z,-0.70
2018-02-05T05:49:49.884Z,-0.70
2018-02-05T05:52:17.334Z,-0.70
2018-02-05T05:54:45.546Z,-0.80
2018-02-05T05:57:12.998Z,-0.80
2018-02-05T05:59:40.444Z,-0.80
2018-02-05T06:02:07.912Z,-0.80
2018-02-05T06:04:35.355Z,-0.80
2018-02-05T06:07:02.827Z,-0.70
2018-02-05T06:09:30.282Z,-0.70
2018-02-05T06:11:57.739Z,-0.70
2018-02-05T06:14:25.193Z,-0.60
2018-02-05T06:16:52.658Z,-0.60
2018-02-05T06:19:20.122Z,-0.50
2018-02-05T06:21:47.578Z,-0.50
2018-02-05T06:24:15.027Z,-0.50
2018-02-05T06:26:42.482Z,-0.40
2018-02-05T06:29:09.951Z,-0.40
2018-02-05T06:31:37.407Z,-0.40
2018-02-05T06:34:04.894Z,-0.30
2018-02-05T06:36:32.385Z,-0.30
2018-02-05T06:38:59.849Z,-0.30
2018-02-05T06:41:27.301Z,-0.30
2018-02-05T06:43:54.805Z,-0.30
2018-02-05T06:46:23.032Z,-0.30
2018-02-05T06:48:51.281Z,-0.30
2018-02-05T06:51:30.526Z,-0.30
2018-02-05T06:57:11.129Z,-0.40
2018-02-05T06:59:39.351Z,-0.50
2018-02-05T07:02:06.809Z,-0.60
2018-02-05T07:04:35.077Z,-0.60
2018-02-05T07:07:02.554Z,-0.60
2018-02-05T07:09:30.035Z,-0.60
2018-02-05T07:11:58.255Z,-0.60
2018-02-05T07:14:25.717Z,-0.60
2018-02-05T07:16:53.195Z,-0.60
2018-02-05T07:19:20.678Z,-0.70
2018-02-05T07:21:48.910Z,-0.70
2018-02-05T07:24:16.410Z,-0.70
2018-02-05T07:26:43.932Z,-0.70
2018-02-05T07:29:11.390Z,-0.70
2018-02-05T07:31:38.921Z,-0.70
2018-02-05T07:34:06.381Z,-0.80
2018-02-05T07:36:33.849Z,-0.70
2018-02-05T07:39:01.436Z,-0.70
2018-02-05T07:41:28.919Z,-0.60
2018-02-05T07:43:56.382Z,-0.40
2018-02-05T07:46:23.919Z,-0.40
2018-02-05T07:48:51.373Z,-0.30
2018-02-05T07:51:18.845Z,-0.20
2018-02-05T07:53:46.321Z,-0.10
2018-02-05T07:56:14.554Z,0.00
2018-02-05T07:58:42.022Z,0.00
2018-02-05T08:01:09.514Z,0.00
2018-02-05T08:03:36.985Z,0.10
2018-02-05T08:06:04.435Z,0.00
2018-02-05T08:08:31.922Z,0.00
2018-02-05T08:10:59.386Z,0.00
2018-02-05T08:13:26.912Z,0.00
2018-02-05T08:15:54.374Z,0.00
2018-02-05T08:18:21.862Z,0.00
2018-02-05T08:20:49.373Z,0.00
2018-02-05T08:23:17.591Z,0.00
2018-02-05T08:25:45.050Z,0.00
2018-02-05T08:28:12.515Z,0.00
2018-02-05T08:30:39.970Z,0.10
2018-02-05T08:33:07.454Z,0.10
2018-02-05T08:35:35.669Z,0.10
2018-02-05T08:38:03.158Z,0.10
2018-02-05T08:40:30.619Z,0.10
2018-02-05T08:42:58.094Z,0.20
2018-02-05T08:45:25.597Z,0.20
2018-02-05T08:47:53.053Z,0.40
2018-02-05T08:50:20.508Z,0.40
2018-02-05T08:52:47.970Z,0.60
2018-02-05T08:55:15.418Z,0.60
2018-02-05T08:57:42.911Z,0.70
2018-02-05T09:00:11.125Z,0.90
2018-02-05T09:02:38.600Z,0.90
2018-02-05T09:05:06.082Z,0.90
2018-02-05T09:07:33.533Z,0.90
2018-02-05T09:10:01.021Z,0.90
2018-02-05T09:12:28.496Z,0.90
2018-02-05T09:14:55.978Z,1.00
2018-02-05T09:17:24.192Z,1.10
2018-02-05T09:19:51.639Z,1.10
2018-02-05T09:22:19.125Z,1.20
2018-02-05T09:24:46.561Z,1.40
2018-02-05T09:27:14.142Z,1.50
2018-02-05T09:29:41.608Z,1.50
2018-02-05T09:32:09.073Z,1.60
2018-02-05T09:34:36.542Z,1.60
2018-02-05T09:37:04.777Z,1.60
2018-02-05T09:39:32.232Z,1.60
2018-02-05T09:41:59.726Z,1.50
2018-02-05T09:44:27.251Z,1.50
2018-02-05T09:46:54.662Z,1.40
2018-02-05T09:49:22.152Z,1.40
2018-02-05T09:51:49.602Z,1.30
2018-02-05T09:54:17.079Z,1.30
2018-02-05T09:56:44.534Z,1.20
2018-02-05T09:59:12.014Z,1.10
2018-02-05T10:01:39.474Z,1.10
2018-02-05T10:04:06.938Z,1.10
2018-02-05T10:06:34.397Z,1.10
2018-02-05T10:09:01.898Z,1.10
2018-02-05T10:11:29.350Z,1.20
2018-02-05T10:13:56.806Z,1.30
2018-02-05T10:16:24.285Z,1.20
2018-02-05T10:18:51.782Z,1.30
2018-02-05T10:21:20.003Z,1.40
2018-02-05T10:23:47.453Z,1.40
2018-02-05T10:26:15.034Z,1.50
2018-02-05T10:28:42.498Z,1.60
2018-02-05T10:31:09.996Z,1.70
2018-02-05T10:33:37.441Z,1.80
2018-02-05T10:36:04.918Z,1.90
2018-02-05T10:38:33.137Z,2.00
2018-02-05T10:41:00.621Z,2.00
2018-02-05T10:43:28.065Z,2.10
2018-02-05T10:45:55.541Z,2.10
2018-02-05T10:48:23.025Z,2.10
2018-02-05T10:50:50.482Z,2.00
2018-02-05T10:53:17.966Z,2.00
2018-02-05T10:55:45.422Z,2.00
2018-02-05T10:58:12.910Z,1.90
2018-02-05T11:00:40.362Z,1.90
2018-02-05T11:03:07.854Z,2.00
2018-02-05T11:05:36.086Z,2.10
2018-02-05T11:08:03.593Z,2.10
2018-02-05T11:10:31.810Z,2.20
2018-02-05T11:12:59.276Z,2.20
2018-02-05T11:15:26.769Z,2.20
2018-02-05T11:17:54.988Z,2.20
2018-02-05T11:20:22.445Z,2.20
2018-02-05T11:22:50.211Z,2.20
2018-02-05T11:25:17.666Z,2.10
2018-02-05T11:27:45.142Z,2.00
2018-02-05T11:30:12.592Z,2.00
2018-02-05T11:32:40.045Z,1.90
2018-02-05T11:35:07.534Z,1.90
2018-02-05T11:37:35.000Z,1.80
2018-02-05T11:40:02.476Z,1.80
2018-02-05T11:42:29.934Z,1.70
2018-02-05T11:44:57.426Z,1.70
2018-02-05T11:47:24.895Z,1.70
2018-02-05T11:49:52.354Z,1.60
2018-02-05T11:52:19.821Z,1.60
2018-02-05T11:54:47.285Z,1.60
2018-02-05T11:57:14.867Z,1.70
2018-02-05T11:59:42.314Z,1.90
2018-02-05T12:02:09.789Z,2.20
2018-02-05T12:04:37.290Z,2.60
2018-02-05T12:07:04.761Z,3.30
2018-02-05T12:09:32.235Z,4.00
2018-02-05T12:11:59.697Z,4.50
2018-02-05T12:14:27.306Z,4.70
2018-02-05T12:16:54.769Z,4.70
2018-02-05T12:19:22.242Z,4.50
2018-02-05T12:21:49.706Z,4.30
2018-02-05T12:24:17.161Z,4.10
2018-02-05T12:26:44.637Z,3.90
2018-02-05T12:29:12.130Z,3.70
2018-02-05T12:31:40.369Z,3.20
2018-02-05T12:34:07.835Z,3.20
2018-02-05T12:36:35.328Z,3.00
2018-02-05T12:39:03.598Z,2.70
2018-02-05T12:41:31.074Z,2.70
2018-02-05T12:43:58.542Z,2.60
2018-02-05T12:46:26.018Z,2.50
2018-02-05T12:48:53.481Z,2.40
2018-02-05T12:51:20.987Z,2.30
2018-02-05T12:53:48.446Z,2.30
2018-02-05T12:56:15.899Z,2.20
2018-02-05T12:58:43.386Z,2.10
2018-02-05T13:01:25.730Z,2.00
2018-02-05T13:03:58.966Z,2.00
2018-02-05T13:06:44.651Z,1.90
2018-02-05T13:09:12.130Z,1.90
2018-02-05T13:11:39.577Z,1.90
2018-02-05T13:14:07.050Z,1.80
2018-02-05T13:16:35.326Z,1.80
2018-02-05T13:19:02.786Z,1.80
2018-02-05T13:21:30.283Z,1.90
2018-02-05T13:23:57.721Z,1.90
2018-02-05T13:26:25.170Z,1.90
2018-02-05T13:28:52.650Z,1.90
2018-02-05T13:31:20.890Z,1.90
2018-02-05T13:33:49.134Z,1.90
2018-02-05T13:36:16.639Z,1.90
2018-02-05T13:38:44.081Z,1.90
2018-02-05T13:41:11.529Z,1.90
2018-02-05T13:43:39.007Z,1.90
2018-02-05T13:46:06.457Z,1.90
2018-02-05T13:48:33.929Z,1.90
2018-02-05T13:51:01.460Z,1.90
2018-02-05T13:53:28.913Z,1.90
2018-02-05T13:55:56.373Z,1.90
2018-02-05T13:58:23.846Z,1.90
2018-02-05T14:00:51.363Z,1.90
2018-02-05T14:03:18.794Z,1.90
2018-02-05T14:05:46.249Z,1.90
2018-02-05T14:08:14.459Z,1.90
2018-02-05T14:10:41.949Z,1.90
2018-02-05T14:13:09.406Z,1.90
2018-02-05T14:15:36.867Z,1.90
2018-02-05T14:18:04.356Z,1.90
2018-02-05T14:20:32.639Z,1.80
2018-02-05T14:23:00.091Z,1.80
2018-02-05T14:25:28.342Z,1.90
2018-02-05T14:27:55.785Z,1.80
2018-02-05T14:30:23.246Z,1.80
2018-02-05T14:32:50.737Z,1.90
2018-02-05T14:35:18.201Z,1.90
2018-02-05T14:37:45.687Z,1.90
2018-02-05T14:40:13.270Z,1.80
2018-02-05T14:42:40.721Z,1.90
2018-02-05T14:45:08.194Z,1.90
2018-02-05T14:47:35.683Z,1.90
2018-02-05T14:50:03.138Z,1.90
2018-02-05T14:52:31.365Z,1.90
2018-02-05T14:54:58.835Z,1.90
2018-02-05T14:57:26.299Z,1.90
2018-02-05T14:59:53.758Z,1.80
2018-02-05T15:02:21.237Z,1.90
2018-02-05T15:04:48.748Z,1.80
2018-02-05T15:07:16.215Z,1.80
2018-02-05T15:09:43.717Z,1.80
2018-02-05T15:12:11.169Z,1.80
2018-02-05T15:14:39.385Z,1.70
2018-02-05T15:17:06.879Z,1.70
2018-02-05T15:19:34.323Z,1.70
2018-02-05T15:22:01.778Z,1.70
2018-02-05T15:24:29.260Z,1.70
2018-02-05T15:26:56.699Z,1.60
2018-02-05T15:29:24.166Z,1.60
2018-02-05T15:31:52.426Z,1.40
2018-02-05T15:34:19.861Z,1.40
2018-02-05T15:36:47.318Z,1.30
2018-02-05T15:39:14.858Z,1.20
2018-02-05T15:41:42.351Z,1.10
2018-02-05T15:44:09.790Z,1.00
2018-02-05T15:46:37.269Z,0.90
2018-02-05T15:49:04.742Z,0.80
2018-02-05T15:51:32.224Z,0.70
2018-02-05T15:53:59.661Z,0.60
2018-02-05T15:56:27.138Z,0.50
2018-02-05T15:58:54.609Z,0.40
2018-02-05T16:01:22.105Z,0.30
2018-02-05T16:03:49.549Z,0.30
2018-02-05T16:06:17.006Z,0.20
2018-02-05T16:08:44.489Z,0.20
2018-02-05T16:11:11.973Z,0.10
2018-02-05T16:13:40.186Z,0.00
2018-02-05T16:16:07.674Z,0.00
2018-02-05T16:18:35.142Z,0.00
2018-02-05T16:21:02.600Z,-0.10
2018-02-05T16:23:30.086Z,-0.10
2018-02-05T16:25:57.601Z,-0.20
2018-02-05T16:28:24.989Z,-0.20
2018-02-05T16:30:52.506Z,-0.20
2018-02-05T16:33:19.983Z,-0.20
2018-02-05T16:35:47.485Z,-0.20
2018-02-05T16:38:15.008Z,-0.20
2018-02-05T16:40:43.222Z,-0.10
2018-02-05T16:43:10.710Z,-0.20
2018-02-05T16:45:38.174Z,-0.10
2018-02-05T16:48:05.649Z,-0.10
2018-02-05T16:50:33.877Z,-0.10
2018-02-05T16:53:01.361Z,-0.10
2018-02-05T16:55:28.822Z,0.00
2018-02-05T16:57:56.297Z,0.00
2018-02-05T17:00:24.533Z,0.00
2018-02-05T17:02:51.991Z,0.00
2018-02-05T17:05:19.471Z,0.00
2018-02-05T17:07:46.929Z,0.10
2018-02-05T17:10:14.426Z,0.10
2018-02-05T17:12:41.922Z,0.10
2018-02-05T17:15:09.398Z,0.10
2018-02-05T17:17:36.886Z,0.10
2018-02-05T17:20:04.338Z,0.10
2018-02-05T17:22:31.827Z,0.10
2018-02-05T17:24:59.266Z,0.10
2018-02-05T17:27:26.721Z,0.10
2018-02-05T17:29:54.235Z,0.10
2018-02-05T17:32:21.704Z,0.20
2018-02-05T17:34:49.190Z,0.10
2018-02-05T17:37:17.414Z,0.10
2018-02-05T17:39:45.661Z,0.10
2018-02-05T17:42:13.118Z,0.20
2018-02-05T17:44:40.573Z,0.10
2018-02-05T17:47:08.058Z,0.10
2018-02-05T17:49:35.510Z,0.20
2018-02-05T17:52:03.198Z,0.10
2018-02-05T17:54:31.430Z,0.10
2018-02-05T17:56:58.890Z,0.10
2018-02-05T17:59:26.365Z,0.10
2018-02-05T18:01:54.618Z,0.10
2018-02-05T18:04:22.074Z,0.10
2018-02-05T18:06:49.550Z,0.10
2018-02-05T18:09:17.020Z,0.10
2018-02-05T18:11:44.470Z,0.00
2018-02-05T18:14:11.967Z,0.00
2018-02-05T18:16:40.202Z,-0.10
2018-02-05T18:19:07.740Z,-0.10
2018-02-05T18:21:36.050Z,-0.20
2018-02-05T18:24:04.453Z,-0.20
2018-02-05T18:26:32.690Z,-0.40
2018-02-05T18:29:00.182Z,-0.40
2018-02-05T18:31:28.430Z,-0.50
2018-02-05T18:33:55.890Z,-0.50
2018-02-05T18:36:24.134Z,-0.60
2018-02-05T18:38:51.619Z,-0.60
2018-02-05T18:41:19.062Z,-0.70
2018-02-05T18:43:46.513Z,-0.70
2018-02-05T18:46:13.982Z,-0.80
2018-02-05T18:48:41.438Z,-0.80
2018-02-05T18:51:08.934Z,-0.90
2018-02-05T18:53:37.175Z,-1.00
2018-02-05T18:56:04.632Z,-1.00
2018-02-05T18:58:32.125Z,-1.00
2018-02-05T19:00:59.585Z,-1.10
2018-02-05T19:03:27.812Z,-1.10
2018-02-05T19:05:55.281Z,-1.20
2018-02-05T19:08:22.734Z,-1.20
2018-02-05T19:10:50.205Z,-1.20
2018-02-05T19:13:17.662Z,-1.30
2018-02-05T19:15:45.150Z,-1.30
2018-02-05T19:18:13.395Z,-1.40
2018-02-05T19:20:40.895Z,-1.40
2018-02-05T19:23:08.366Z,-1.40
2018-02-05T19:25:35.823Z,-1.40
2018-02-05T19:28:04.080Z,-1.50
2018-02-05T19:30:32.294Z,-1.50
2018-02-05T19:32:59.765Z,-1.50
2018-02-05T19:35:27.225Z,-1.50
2018-02-05T19:37:54.712Z,-1.50
2018-02-05T19:40:22.954Z,-1.60
2018-02-05T19:42:50.406Z,-1.60
2018-02-05T19:45:17.891Z,-1.60
2018-02-05T19:47:45.350Z,-1.70
2018-02-05T19:50:12.817Z,-1.70
2018-02-05T19:52:40.287Z,-1.70
2018-02-05T19:55:07.797Z,-1.70
2018-02-05T19:57:35.245Z,-1.70
2018-02-05T20:00:02.717Z,-1.70
2018-02-05T20:02:30.195Z,-1.80
2018-02-05T20:04:57.675Z,-1.80
2018-02-05T20:07:25.153Z,-1.80
2018-02-05T20:09:52.638Z,-1.80
2018-02-05T20:12:20.142Z,-1.80
2018-02-05T20:14:48.375Z,-1.80
2018-02-05T20:17:15.849Z,-1.80
2018-02-05T20:19:43.338Z,-1.80
2018-02-05T20:22:11.578Z,-1.90
2018-02-05T20:24:39.035Z,-1.90
2018-02-05T20:27:06.525Z,-1.90
2018-02-05T20:29:34.762Z,-1.90
2018-02-05T20:32:02.221Z,-1.90
2018-02-05T20:34:29.706Z,-1.90
2018-02-05T20:36:57.206Z,-2.00
2018-02-05T20:39:24.671Z,-2.00
2018-02-05T20:41:52.143Z,-1.90
2018-02-05T20:44:19.610Z,-2.00
2018-02-05T20:46:47.071Z,-2.00
2018-02-05T20:49:14.548Z,-2.00
2018-02-05T20:51:42.021Z,-2.00
2018-02-05T20:54:10.249Z,-2.00
2018-02-05T20:56:37.730Z,-2.00
2018-02-05T20:59:05.223Z,-2.00
2018-02-05T21:01:33.472Z,-2.00
2018-02-05T21:04:00.953Z,-2.10
2018-02-05T21:06:29.178Z,-2.10
2018-02-05T21:08:56.664Z,-2.10
2018-02-05T21:11:24.143Z,-2.00
2018-02-05T21:13:52.458Z,-2.00
2018-02-05T21:16:19.934Z,-2.10
2018-02-05T21:18:47.408Z,-2.10
2018-02-05T21:21:14.867Z,-2.10
2018-02-05T21:23:42.357Z,-2.10
2018-02-05T21:26:09.818Z,-2.10
2018-02-05T21:28:37.286Z,-2.10
2018-02-05T21:31:04.764Z,-2.10
2018-02-05T21:33:32.234Z,-2.10
2018-02-05T21:35:59.745Z,-2.10
2018-02-05T21:38:28.040Z,-2.10
2018-02-05T21:40:55.509Z,-2.10
2018-02-05T21:43:22.986Z,-2.10
2018-02-05T21:45:50.494Z,-2.10
2018-02-05T21:48:17.945Z,-2.10
2018-02-05T21:50:45.407Z,-2.10
2018-02-05T21:53:13.642Z,-2.10
2018-02-05T21:55:41.126Z,-2.10
2018-02-05T21:58:08.597Z,-2.00
2018-02-05T22:00:36.055Z,-2.00
2018-02-05T22:03:04.341Z,-2.00
2018-02-05T22:05:31.785Z,-2.00
2018-02-05T22:07:59.243Z,-2.00
2018-02-05T22:10:26.725Z,-2.00
2018-02-05T22:12:54.185Z,-2.00
2018-02-05T22:15:21.688Z,-2.00
2018-02-05T22:17:49.149Z,-2.00
2018-02-05T22:20:16.610Z,-2.00
2018-02-05T22:22:44.865Z,-2.00
2018-02-05T22:25:12.335Z,-2.00
2018-02-05T22:27:39.818Z,-1.90
2018-02-05T22:30:08.049Z,-2.00
2018-02-05T22:32:35.550Z,-2.00
2018-02-05T22:35:03.026Z,-2.10
2018-02-05T22:37:30.493Z,-2.10
2018-02-05T22:39:57.969Z,-2.10
2018-02-05T22:42:25.466Z,-2.10
2018-02-05T22:44:53.710Z,-2.10
2018-02-05T22:47:21.182Z,-2.10
2018-02-05T22:49:48.673Z,-2.20
2018-02-05T22:52:16.134Z,-2.20
2018-02-05T22:54:43.694Z,-2.20
2018-02-05T22:57:11.153Z,-2.20
2018-02-05T22:59:38.645Z,-2.30
2018-02-05T23:02:06.113Z,-2.30
2018-02-05T23:04:33.586Z,-2.30
2018-02-05T23:07:01.045Z,-2.40
2018-02-05T23:09:28.537Z,-2.30
2018-02-05T23:11:55.998Z,-2.30
2018-02-05T23:14:23.470Z,-2.30
2018-02-05T23:16:50.956Z,-2.30
2018-02-05T23:19:18.436Z,-2.30
2018-02-05T23:21:45.932Z,-2.40
2018-02-05T23:24:13.423Z,-2.40
2018-02-05T23:26:40.871Z,-2.40
2018-02-05T23:29:08.351Z,-2.40
2018-02-05T23:31:35.815Z,-2.40
2018-02-05T23:34:03.302Z,-2.40
2018-02-05T23:36:30.741Z,-2.40
2018-02-05T23:38:59.003Z,-2.40
2018-02-05T23:41:26.479Z,-2.40
2018-02-05T23:43:54.726Z,-2.30
2018-02-05T23:46:22.209Z,-2.40
2018-02-05T23:48:49.671Z,-2.40
2018-02-05T23:51:17.134Z,-2.40
2018-02-05T23:53:44.590Z,-2.30
2018-02-05T23:56:12.853Z,-2.40
2018-02-05T23:58:40.316Z,-2.40
